Terminal Aerodrome Forecast
Issued by NWS

Home | Current Version | Previous Version | Text Only | Print | Product List | Glossary Off
Versions: 1 2 3 4 5 6 7 8 9 10 11 12 13 14 15 16

000
FTUS44 KTSA 192336
TAFXNA
TAF
KXNA 192336Z 2000/2024 14010KT P6SM OVC035
      TEMPO 2012/2016 3SM TSRA BR BKN020CB
     FM201600 18008KT P6SM OVC015 PROB30 2016/2020 5SM -RA BR
     FM202100 19008KT P6SM BKN150=

USA.gov is the U.S. government's official web portal to all federal, state and local government web resources and services.